sensor_id;sensor_type;location;lat;lon;timestamp;P1;durP1;ratioP1;P2;durP2;ratioP2
44438;SDS011;30145;48.874;10.186;2023-02-15T00:00:19;22.33;;;14.10;;
44438;SDS011;30145;48.874;10.186;2023-02-15T00:02:47;21.93;;;14.00;;
44438;SDS011;30145;48.874;10.186;2023-02-15T00:05:14;18.20;;;13.00;;
44438;SDS011;30145;48.874;10.186;2023-02-15T00:07:41;20.10;;;13.80;;
44438;SDS011;30145;48.874;10.186;2023-02-15T00:10:08;21.80;;;14.03;;
44438;SDS011;30145;48.874;10.186;2023-02-15T00:12:35;19.67;;;14.23;;
44438;SDS011;30145;48.874;10.186;2023-02-15T00:15:03;21.97;;;14.60;;
44438;SDS011;30145;48.874;10.186;2023-02-15T00:17:30;24.27;;;16.03;;
44438;SDS011;30145;48.874;10.186;2023-02-15T00:19:57;19.07;;;13.57;;
44438;SDS011;30145;48.874;10.186;2023-02-15T00:22:25;18.40;;;13.43;;
44438;SDS011;30145;48.874;10.186;2023-02-15T00:24:52;19.97;;;13.67;;
44438;SDS011;30145;48.874;10.186;2023-02-15T00:27:19;19.17;;;13.00;;
44438;SDS011;30145;48.874;10.186;2023-02-15T00:29:46;19.30;;;13.40;;
44438;SDS011;30145;48.874;10.186;2023-02-15T00:32:13;20.93;;;13.40;;
44438;SDS011;30145;48.874;10.186;2023-02-15T00:34:40;18.00;;;12.87;;
44438;SDS011;30145;48.874;10.186;2023-02-15T00:37:07;18.90;;;12.13;;
44438;SDS011;30145;48.874;10.186;2023-02-15T00:39:34;16.53;;;11.53;;
44438;SDS011;30145;48.874;10.186;2023-02-15T00:42:01;17.53;;;12.50;;
44438;SDS011;30145;48.874;10.186;2023-02-15T00:44:28;19.97;;;13.07;;
44438;SDS011;30145;48.874;10.186;2023-02-15T00:46:55;21.53;;;15.03;;
44438;SDS011;30145;48.874;10.186;2023-02-15T00:49:23;31.80;;;17.37;;
44438;SDS011;30145;48.874;10.186;2023-02-15T00:51:50;26.67;;;15.57;;
44438;SDS011;30145;48.874;10.186;2023-02-15T00:54:17;20.23;;;13.60;;
44438;SDS011;30145;48.874;10.186;2023-02-15T00:56:44;14.10;;;10.80;;
44438;SDS011;30145;48.874;10.186;2023-02-15T00:59:11;16.90;;;11.90;;
44438;SDS011;30145;48.874;10.186;2023-02-15T01:01:38;28.97;;;17.37;;
44438;SDS011;30145;48.874;10.186;2023-02-15T01:04:05;32.37;;;17.30;;
44438;SDS011;30145;48.874;10.186;2023-02-15T01:06:32;23.57;;;14.47;;
44438;SDS011;30145;48.874;10.186;2023-02-15T01:08:59;22.53;;;13.80;;
44438;SDS011;30145;48.874;10.186;2023-02-15T01:11:26;17.40;;;11.97;;
44438;SDS011;30145;48.874;10.186;2023-02-15T01:13:54;16.00;;;11.40;;
44438;SDS011;30145;48.874;10.186;2023-02-15T01:16:23;18.90;;;12.87;;
44438;SDS011;30145;48.874;10.186;2023-02-15T01:18:51;20.70;;;13.00;;
44438;SDS011;30145;48.874;10.186;2023-02-15T01:21:19;19.20;;;12.60;;
44438;SDS011;30145;48.874;10.186;2023-02-15T01:23:47;18.43;;;12.93;;
44438;SDS011;30145;48.874;10.186;2023-02-15T01:26:15;17.83;;;11.43;;
44438;SDS011;30145;48.874;10.186;2023-02-15T01:28:42;15.57;;;12.43;;
44438;SDS011;30145;48.874;10.186;2023-02-15T01:31:11;18.30;;;12.27;;
44438;SDS011;30145;48.874;10.186;2023-02-15T01:33:40;18.87;;;11.87;;
44438;SDS011;30145;48.874;10.186;2023-02-15T01:36:08;18.23;;;11.63;;
44438;SDS011;30145;48.874;10.186;2023-02-15T01:38:35;18.27;;;11.83;;
44438;SDS011;30145;48.874;10.186;2023-02-15T01:41:02;16.27;;;11.67;;
44438;SDS011;30145;48.874;10.186;2023-02-15T01:43:49;17.43;;;10.93;;
44438;SDS011;30145;48.874;10.186;2023-02-15T01:46:19;15.97;;;10.67;;
44438;SDS011;30145;48.874;10.186;2023-02-15T01:49:08;16.83;;;11.53;;
44438;SDS011;30145;48.874;10.186;2023-02-15T01:51:41;15.77;;;10.57;;
44438;SDS011;30145;48.874;10.186;2023-02-15T01:54:27;18.67;;;11.80;;
44438;SDS011;30145;48.874;10.186;2023-02-15T01:57:08;16.27;;;11.37;;
44438;SDS011;30145;48.874;10.186;2023-02-15T01:59:37;18.77;;;12.93;;
44438;SDS011;30145;48.874;10.186;2023-02-15T02:02:06;21.37;;;12.60;;
44438;SDS011;30145;48.874;10.186;2023-02-15T02:04:41;19.70;;;13.20;;
44438;SDS011;30145;48.874;10.186;2023-02-15T02:07:12;18.20;;;12.03;;
44438;SDS011;30145;48.874;10.186;2023-02-15T02:09:41;17.03;;;12.90;;
44438;SDS011;30145;48.874;10.186;2023-02-15T02:12:08;20.67;;;12.90;;
44438;SDS011;30145;48.874;10.186;2023-02-15T02:14:36;18.40;;;12.23;;
44438;SDS011;30145;48.874;10.186;2023-02-15T02:17:11;17.30;;;12.53;;
44438;SDS011;30145;48.874;10.186;2023-02-15T02:31:29;18.47;;;12.63;;
44438;SDS011;30145;48.874;10.186;2023-02-15T02:39:44;20.40;;;14.17;;
44438;SDS011;30145;48.874;10.186;2023-02-15T02:45:25;20.17;;;13.93;;
44438;SDS011;30145;48.874;10.186;2023-02-15T02:48:05;21.40;;;13.97;;
44438;SDS011;30145;48.874;10.186;2023-02-15T02:50:54;20.23;;;13.27;;
44438;SDS011;30145;48.874;10.186;2023-02-15T02:53:21;19.00;;;14.07;;
44438;SDS011;30145;48.874;10.186;2023-02-15T03:00:57;18.27;;;12.30;;
44438;SDS011;30145;48.874;10.186;2023-02-15T03:06:25;14.43;;;11.43;;
44438;SDS011;30145;48.874;10.186;2023-02-15T03:08:55;13.83;;;10.30;;
44438;SDS011;30145;48.874;10.186;2023-02-15T03:11:26;13.43;;;10.70;;
44438;SDS011;30145;48.874;10.186;2023-02-15T03:13:53;17.73;;;11.97;;
44438;SDS011;30145;48.874;10.186;2023-02-15T03:16:20;14.10;;;11.20;;
44438;SDS011;30145;48.874;10.186;2023-02-15T03:18:58;16.07;;;11.47;;
44438;SDS011;30145;48.874;10.186;2023-02-15T03:24:25;14.47;;;11.17;;
44438;SDS011;30145;48.874;10.186;2023-02-15T03:26:55;15.27;;;10.50;;
44438;SDS011;30145;48.874;10.186;2023-02-15T03:29:23;16.37;;;10.90;;
44438;SDS011;30145;48.874;10.186;2023-02-15T03:31:53;17.47;;;11.73;;
44438;SDS011;30145;48.874;10.186;2023-02-15T03:34:23;14.70;;;11.00;;
44438;SDS011;30145;48.874;10.186;2023-02-15T03:42:45;16.93;;;12.17;;
44438;SDS011;30145;48.874;10.186;2023-02-15T03:45:16;16.13;;;11.27;;
44438;SDS011;30145;48.874;10.186;2023-02-15T03:47:48;18.73;;;12.10;;
44438;SDS011;30145;48.874;10.186;2023-02-15T03:50:24;16.53;;;11.43;;
44438;SDS011;30145;48.874;10.186;2023-02-15T03:53:13;16.17;;;12.00;;
44438;SDS011;30145;48.874;10.186;2023-02-15T03:55:41;16.77;;;11.23;;
44438;SDS011;30145;48.874;10.186;2023-02-15T03:58:08;16.80;;;11.93;;
44438;SDS011;30145;48.874;10.186;2023-02-15T04:00:57;16.80;;;10.77;;
44438;SDS011;30145;48.874;10.186;2023-02-15T04:04:07;17.00;;;11.90;;
44438;SDS011;30145;48.874;10.186;2023-02-15T04:06:42;14.13;;;10.50;;
44438;SDS011;30145;48.874;10.186;2023-02-15T04:09:09;13.97;;;10.13;;
44438;SDS011;30145;48.874;10.186;2023-02-15T04:11:55;16.50;;;10.10;;
44438;SDS011;30145;48.874;10.186;2023-02-15T04:14:22;15.67;;;10.70;;
44438;SDS011;30145;48.874;10.186;2023-02-15T04:17:07;15.03;;;11.57;;
44438;SDS011;30145;48.874;10.186;2023-02-15T04:19:35;14.37;;;10.63;;
44438;SDS011;30145;48.874;10.186;2023-02-15T04:22:21;15.27;;;10.47;;
44438;SDS011;30145;48.874;10.186;2023-02-15T04:25:06;14.37;;;9.90;;
44438;SDS011;30145;48.874;10.186;2023-02-15T04:27:37;14.20;;;10.47;;
44438;SDS011;30145;48.874;10.186;2023-02-15T04:30:04;15.30;;;10.57;;
44438;SDS011;30145;48.874;10.186;2023-02-15T04:32:34;19.60;;;11.53;;
44438;SDS011;30145;48.874;10.186;2023-02-15T04:35:02;15.37;;;10.57;;
44438;SDS011;30145;48.874;10.186;2023-02-15T04:37:29;14.77;;;10.60;;
44438;SDS011;30145;48.874;10.186;2023-02-15T04:39:56;15.00;;;10.47;;
44438;SDS011;30145;48.874;10.186;2023-02-15T04:42:25;13.60;;;10.03;;
44438;SDS011;30145;48.874;10.186;2023-02-15T04:44:52;14.87;;;10.67;;
44438;SDS011;30145;48.874;10.186;2023-02-15T04:47:20;14.03;;;9.50;;
44438;SDS011;30145;48.874;10.186;2023-02-15T04:49:47;14.70;;;9.30;;
44438;SDS011;30145;48.874;10.186;2023-02-15T04:52:14;13.10;;;9.70;;
44438;SDS011;30145;48.874;10.186;2023-02-15T04:54:41;15.80;;;10.10;;
44438;SDS011;30145;48.874;10.186;2023-02-15T04:57:08;13.70;;;10.47;;
44438;SDS011;30145;48.874;10.186;2023-02-15T04:59:35;15.87;;;9.93;;
44438;SDS011;30145;48.874;10.186;2023-02-15T05:02:02;14.23;;;10.57;;
44438;SDS011;30145;48.874;10.186;2023-02-15T05:04:29;12.50;;;10.00;;
44438;SDS011;30145;48.874;10.186;2023-02-15T05:06:56;15.20;;;10.90;;
44438;SDS011;30145;48.874;10.186;2023-02-15T05:09:23;15.03;;;10.73;;
44438;SDS011;30145;48.874;10.186;2023-02-15T05:11:51;15.60;;;11.23;;
44438;SDS011;30145;48.874;10.186;2023-02-15T05:14:18;13.73;;;10.33;;
44438;SDS011;30145;48.874;10.186;2023-02-15T05:16:44;17.93;;;11.87;;
44438;SDS011;30145;48.874;10.186;2023-02-15T05:19:11;16.10;;;12.53;;
44438;SDS011;30145;48.874;10.186;2023-02-15T05:21:39;15.03;;;11.67;;
44438;SDS011;30145;48.874;10.186;2023-02-15T05:24:06;15.90;;;11.40;;
44438;SDS011;30145;48.874;10.186;2023-02-15T05:26:51;14.90;;;10.50;;
44438;SDS011;30145;48.874;10.186;2023-02-15T05:29:37;17.03;;;10.87;;
44438;SDS011;30145;48.874;10.186;2023-02-15T05:32:04;17.43;;;11.23;;
44438;SDS011;30145;48.874;10.186;2023-02-15T05:34:31;17.37;;;11.67;;
44438;SDS011;30145;48.874;10.186;2023-02-15T05:36:58;16.67;;;11.47;;
44438;SDS011;30145;48.874;10.186;2023-02-15T05:39:25;16.53;;;11.90;;
44438;SDS011;30145;48.874;10.186;2023-02-15T05:41:52;16.40;;;11.83;;
44438;SDS011;30145;48.874;10.186;2023-02-15T05:44:19;20.10;;;12.97;;
44438;SDS011;30145;48.874;10.186;2023-02-15T05:46:46;22.50;;;14.33;;
44438;SDS011;30145;48.874;10.186;2023-02-15T05:49:13;22.77;;;12.77;;
44438;SDS011;30145;48.874;10.186;2023-02-15T05:51:40;18.40;;;12.93;;
44438;SDS011;30145;48.874;10.186;2023-02-15T05:54:07;20.90;;;12.17;;
44438;SDS011;30145;48.874;10.186;2023-02-15T05:56:34;18.27;;;12.10;;
44438;SDS011;30145;48.874;10.186;2023-02-15T05:59:01;14.70;;;11.33;;
44438;SDS011;30145;48.874;10.186;2023-02-15T06:01:28;16.17;;;11.43;;
44438;SDS011;30145;48.874;10.186;2023-02-15T06:03:55;17.53;;;11.63;;
44438;SDS011;30145;48.874;10.186;2023-02-15T06:06:22;17.60;;;12.17;;
44438;SDS011;30145;48.874;10.186;2023-02-15T06:08:49;17.43;;;12.63;;
44438;SDS011;30145;48.874;10.186;2023-02-15T06:11:16;30.20;;;18.30;;
44438;SDS011;30145;48.874;10.186;2023-02-15T06:13:43;30.50;;;19.63;;
44438;SDS011;30145;48.874;10.186;2023-02-15T06:16:10;28.40;;;19.50;;
44438;SDS011;30145;48.874;10.186;2023-02-15T06:18:37;26.40;;;17.17;;
44438;SDS011;30145;48.874;10.186;2023-02-15T06:21:04;21.63;;;15.17;;
44438;SDS011;30145;48.874;10.186;2023-02-15T06:23:31;22.03;;;14.67;;
44438;SDS011;30145;48.874;10.186;2023-02-15T06:25:58;20.43;;;14.07;;
44438;SDS011;30145;48.874;10.186;2023-02-15T06:28:26;16.40;;;11.20;;
44438;SDS011;30145;48.874;10.186;2023-02-15T06:30:53;16.27;;;10.77;;
44438;SDS011;30145;48.874;10.186;2023-02-15T06:33:20;15.47;;;10.47;;
44438;SDS011;30145;48.874;10.186;2023-02-15T06:35:48;16.17;;;10.93;;
44438;SDS011;30145;48.874;10.186;2023-02-15T06:38:15;15.80;;;11.17;;
44438;SDS011;30145;48.874;10.186;2023-02-15T06:40:44;16.17;;;12.03;;
44438;SDS011;30145;48.874;10.186;2023-02-15T06:43:11;15.03;;;11.50;;
44438;SDS011;30145;48.874;10.186;2023-02-15T06:45:38;14.80;;;10.50;;
44438;SDS011;30145;48.874;10.186;2023-02-15T06:48:05;13.53;;;10.03;;
44438;SDS011;30145;48.874;10.186;2023-02-15T06:50:34;15.93;;;10.37;;
44438;SDS011;30145;48.874;10.186;2023-02-15T06:53:01;13.83;;;10.97;;
44438;SDS011;30145;48.874;10.186;2023-02-15T06:55:28;13.70;;;10.47;;
44438;SDS011;30145;48.874;10.186;2023-02-15T06:57:55;15.93;;;11.13;;
44438;SDS011;30145;48.874;10.186;2023-02-15T07:00:22;12.70;;;9.90;;
44438;SDS011;30145;48.874;10.186;2023-02-15T07:02:53;13.77;;;10.10;;
44438;SDS011;30145;48.874;10.186;2023-02-15T07:05:22;12.63;;;9.47;;
44438;SDS011;30145;48.874;10.186;2023-02-15T07:07:49;14.87;;;10.20;;
44438;SDS011;30145;48.874;10.186;2023-02-15T07:10:16;16.07;;;11.37;;
44438;SDS011;30145;48.874;10.186;2023-02-15T07:12:45;13.17;;;9.47;;
44438;SDS011;30145;48.874;10.186;2023-02-15T07:15:14;13.40;;;10.53;;
44438;SDS011;30145;48.874;10.186;2023-02-15T07:17:42;14.20;;;10.63;;
44438;SDS011;30145;48.874;10.186;2023-02-15T07:20:11;15.37;;;10.60;;
44438;SDS011;30145;48.874;10.186;2023-02-15T07:22:39;13.67;;;11.07;;
44438;SDS011;30145;48.874;10.186;2023-02-15T07:25:07;14.40;;;10.37;;
44438;SDS011;30145;48.874;10.186;2023-02-15T07:27:35;15.27;;;10.70;;
44438;SDS011;30145;48.874;10.186;2023-02-15T07:30:02;15.03;;;11.10;;
44438;SDS011;30145;48.874;10.186;2023-02-15T07:32:31;12.90;;;10.20;;
44438;SDS011;30145;48.874;10.186;2023-02-15T07:34:59;12.67;;;9.33;;
44438;SDS011;30145;48.874;10.186;2023-02-15T07:37:27;17.00;;;12.07;;
44438;SDS011;30145;48.874;10.186;2023-02-15T07:39:54;15.70;;;11.03;;
44438;SDS011;30145;48.874;10.186;2023-02-15T07:42:22;18.63;;;12.57;;
44438;SDS011;30145;48.874;10.186;2023-02-15T07:44:49;16.13;;;11.83;;
44438;SDS011;30145;48.874;10.186;2023-02-15T07:47:16;14.80;;;11.43;;
44438;SDS011;30145;48.874;10.186;2023-02-15T07:49:46;18.83;;;13.90;;
44438;SDS011;30145;48.874;10.186;2023-02-15T07:52:16;16.77;;;11.13;;
44438;SDS011;30145;48.874;10.186;2023-02-15T07:54:43;17.10;;;11.03;;
44438;SDS011;30145;48.874;10.186;2023-02-15T07:57:10;17.50;;;10.83;;
44438;SDS011;30145;48.874;10.186;2023-02-15T07:59:37;13.17;;;10.13;;
44438;SDS011;30145;48.874;10.186;2023-02-15T08:02:05;13.03;;;8.83;;
44438;SDS011;30145;48.874;10.186;2023-02-15T08:04:36;11.87;;;9.23;;
44438;SDS011;30145;48.874;10.186;2023-02-15T08:07:03;13.73;;;10.33;;
44438;SDS011;30145;48.874;10.186;2023-02-15T08:09:30;13.63;;;9.67;;
44438;SDS011;30145;48.874;10.186;2023-02-15T08:11:57;15.63;;;11.10;;
44438;SDS011;30145;48.874;10.186;2023-02-15T08:14:26;13.33;;;9.60;;
44438;SDS011;30145;48.874;10.186;2023-02-15T08:16:54;14.17;;;10.07;;
44438;SDS011;30145;48.874;10.186;2023-02-15T08:19:26;13.30;;;10.10;;
44438;SDS011;30145;48.874;10.186;2023-02-15T08:21:56;14.47;;;9.73;;
44438;SDS011;30145;48.874;10.186;2023-02-15T08:24:25;14.83;;;10.20;;
44438;SDS011;30145;48.874;10.186;2023-02-15T08:26:54;19.47;;;11.13;;
44438;SDS011;30145;48.874;10.186;2023-02-15T08:29:24;14.20;;;10.70;;
44438;SDS011;30145;48.874;10.186;2023-02-15T08:31:54;16.93;;;12.43;;
44438;SDS011;30145;48.874;10.186;2023-02-15T08:34:25;12.17;;;9.70;;
44438;SDS011;30145;48.874;10.186;2023-02-15T08:36:53;15.00;;;10.97;;
44438;SDS011;30145;48.874;10.186;2023-02-15T08:39:20;14.43;;;10.70;;
44438;SDS011;30145;48.874;10.186;2023-02-15T08:41:48;13.93;;;10.80;;
44438;SDS011;30145;48.874;10.186;2023-02-15T08:44:16;16.20;;;11.57;;
44438;SDS011;30145;48.874;10.186;2023-02-15T08:46:45;16.60;;;11.13;;
44438;SDS011;30145;48.874;10.186;2023-02-15T08:49:17;14.70;;;10.17;;
44438;SDS011;30145;48.874;10.186;2023-02-15T08:51:54;11.80;;;9.13;;
44438;SDS011;30145;48.874;10.186;2023-02-15T08:54:21;18.70;;;9.33;;
44438;SDS011;30145;48.874;10.186;2023-02-15T08:56:49;16.83;;;12.37;;
44438;SDS011;30145;48.874;10.186;2023-02-15T08:59:17;11.33;;;9.43;;
44438;SDS011;30145;48.874;10.186;2023-02-15T09:01:49;17.93;;;12.47;;
44438;SDS011;30145;48.874;10.186;2023-02-15T09:04:17;17.23;;;13.07;;
44438;SDS011;30145;48.874;10.186;2023-02-15T09:06:45;15.00;;;11.43;;
44438;SDS011;30145;48.874;10.186;2023-02-15T09:09:15;16.50;;;12.30;;
44438;SDS011;30145;48.874;10.186;2023-02-15T09:11:43;17.00;;;12.57;;
44438;SDS011;30145;48.874;10.186;2023-02-15T09:14:13;17.33;;;11.77;;
44438;SDS011;30145;48.874;10.186;2023-02-15T09:16:45;19.07;;;11.47;;
44438;SDS011;30145;48.874;10.186;2023-02-15T09:19:15;16.93;;;11.97;;
44438;SDS011;30145;48.874;10.186;2023-02-15T09:21:44;14.30;;;10.60;;
44438;SDS011;30145;48.874;10.186;2023-02-15T09:24:13;19.50;;;13.33;;
44438;SDS011;30145;48.874;10.186;2023-02-15T09:26:43;20.07;;;13.17;;
44438;SDS011;30145;48.874;10.186;2023-02-15T09:29:13;13.23;;;9.10;;
44438;SDS011;30145;48.874;10.186;2023-02-15T09:31:46;11.53;;;9.27;;
44438;SDS011;30145;48.874;10.186;2023-02-15T09:34:16;10.37;;;7.63;;
44438;SDS011;30145;48.874;10.186;2023-02-15T09:36:46;11.17;;;7.40;;
44438;SDS011;30145;48.874;10.186;2023-02-15T09:39:15;9.63;;;8.00;;
44438;SDS011;30145;48.874;10.186;2023-02-15T10:01:19;12.40;;;8.43;;
44438;SDS011;30145;48.874;10.186;2023-02-15T10:06:55;11.03;;;8.40;;
44438;SDS011;30145;48.874;10.186;2023-02-15T10:09:45;11.03;;;8.27;;
44438;SDS011;30145;48.874;10.186;2023-02-15T10:21:15;9.97;;;7.27;;
44438;SDS011;30145;48.874;10.186;2023-02-15T10:26:46;10.13;;;7.93;;
44438;SDS011;30145;48.874;10.186;2023-02-15T10:29:32;10.23;;;7.93;;
44438;SDS011;30145;48.874;10.186;2023-02-15T10:34:57;14.23;;;8.80;;
44438;SDS011;30145;48.874;10.186;2023-02-15T11:10:35;11.33;;;8.47;;
44438;SDS011;30145;48.874;10.186;2023-02-15T11:13:09;9.67;;;7.87;;
44438;SDS011;30145;48.874;10.186;2023-02-15T11:15:53;12.57;;;9.07;;
44438;SDS011;30145;48.874;10.186;2023-02-15T11:18:33;11.73;;;9.23;;
44438;SDS011;30145;48.874;10.186;2023-02-15T11:21:22;11.70;;;8.80;;
44438;SDS011;30145;48.874;10.186;2023-02-15T11:23:51;13.13;;;9.27;;
44438;SDS011;30145;48.874;10.186;2023-02-15T11:26:38;11.03;;;9.53;;
44438;SDS011;30145;48.874;10.186;2023-02-15T11:29:25;13.37;;;10.57;;
44438;SDS011;30145;48.874;10.186;2023-02-15T11:34:46;12.90;;;10.17;;
44438;SDS011;30145;48.874;10.186;2023-02-15T11:37:18;13.17;;;9.80;;
44438;SDS011;30145;48.874;10.186;2023-02-15T11:39:47;13.60;;;9.80;;
44438;SDS011;30145;48.874;10.186;2023-02-15T11:42:19;14.33;;;9.80;;
44438;SDS011;30145;48.874;10.186;2023-02-15T11:44:56;13.13;;;9.67;;
44438;SDS011;30145;48.874;10.186;2023-02-15T11:47:43;10.40;;;9.03;;
44438;SDS011;30145;48.874;10.186;2023-02-15T11:50:32;13.30;;;10.20;;
44438;SDS011;30145;48.874;10.186;2023-02-15T11:53:02;12.07;;;9.97;;
44438;SDS011;30145;48.874;10.186;2023-02-15T11:55:31;11.07;;;8.53;;
44438;SDS011;30145;48.874;10.186;2023-02-15T12:03:48;14.63;;;10.33;;
44438;SDS011;30145;48.874;10.186;2023-02-15T12:11:32;14.57;;;10.43;;
44438;SDS011;30145;48.874;10.186;2023-02-15T12:14:05;13.40;;;9.70;;
44438;SDS011;30145;48.874;10.186;2023-02-15T12:16:43;13.30;;;9.93;;
44438;SDS011;30145;48.874;10.186;2023-02-15T12:21:53;17.27;;;11.47;;
44438;SDS011;30145;48.874;10.186;2023-02-15T12:24:25;12.30;;;9.70;;
44438;SDS011;30145;48.874;10.186;2023-02-15T12:29:41;13.87;;;8.90;;
44438;SDS011;30145;48.874;10.186;2023-02-15T12:32:17;15.07;;;10.43;;
44438;SDS011;30145;48.874;10.186;2023-02-15T12:34:46;13.33;;;9.40;;
44438;SDS011;30145;48.874;10.186;2023-02-15T12:37:19;16.30;;;12.77;;
44438;SDS011;30145;48.874;10.186;2023-02-15T12:39:52;14.00;;;10.90;;
44438;SDS011;30145;48.874;10.186;2023-02-15T12:42:21;13.07;;;9.70;;
44438;SDS011;30145;48.874;10.186;2023-02-15T12:45:02;13.77;;;9.73;;
44438;SDS011;30145;48.874;10.186;2023-02-15T12:47:30;11.40;;;9.67;;
44438;SDS011;30145;48.874;10.186;2023-02-15T12:50:10;13.03;;;10.30;;
44438;SDS011;30145;48.874;10.186;2023-02-15T12:52:46;14.40;;;10.07;;
44438;SDS011;30145;48.874;10.186;2023-02-15T12:55:24;13.77;;;10.13;;
44438;SDS011;30145;48.874;10.186;2023-02-15T12:58:39;11.83;;;9.73;;
44438;SDS011;30145;48.874;10.186;2023-02-15T13:00:45;12.37;;;10.50;;
44438;SDS011;30145;48.874;10.186;2023-02-15T13:03:19;12.00;;;10.27;;
44438;SDS011;30145;48.874;10.186;2023-02-15T13:05:50;11.33;;;9.73;;
44438;SDS011;30145;48.874;10.186;2023-02-15T13:08:20;12.27;;;9.90;;
44438;SDS011;30145;48.874;10.186;2023-02-15T13:11:08;10.93;;;9.53;;
44438;SDS011;30145;48.874;10.186;2023-02-15T13:13:56;13.67;;;9.37;;
44438;SDS011;30145;48.874;10.186;2023-02-15T13:16:36;13.07;;;9.90;;
44438;SDS011;30145;48.874;10.186;2023-02-15T13:22:14;11.17;;;9.20;;
44438;SDS011;30145;48.874;10.186;2023-02-15T13:24:46;13.83;;;9.70;;
44438;SDS011;30145;48.874;10.186;2023-02-15T13:27:16;12.20;;;9.50;;
44438;SDS011;30145;48.874;10.186;2023-02-15T13:29:46;12.47;;;8.93;;
44438;SDS011;30145;48.874;10.186;2023-02-15T13:34:54;11.73;;;10.10;;
44438;SDS011;30145;48.874;10.186;2023-02-15T13:40:13;14.50;;;9.80;;
44438;SDS011;30145;48.874;10.186;2023-02-15T13:42:46;12.67;;;9.20;;
44438;SDS011;30145;48.874;10.186;2023-02-15T13:54:33;12.23;;;9.93;;
44438;SDS011;30145;48.874;10.186;2023-02-15T13:59:50;13.30;;;11.73;;
44438;SDS011;30145;48.874;10.186;2023-02-15T14:02:40;14.77;;;12.17;;
44438;SDS011;30145;48.874;10.186;2023-02-15T14:05:41;11.90;;;10.17;;
44438;SDS011;30145;48.874;10.186;2023-02-15T14:08:18;15.47;;;12.17;;
44438;SDS011;30145;48.874;10.186;2023-02-15T14:10:59;12.20;;;9.80;;
44438;SDS011;30145;48.874;10.186;2023-02-15T14:13:42;13.20;;;10.67;;
44438;SDS011;30145;48.874;10.186;2023-02-15T14:30:30;11.47;;;9.60;;
44438;SDS011;30145;48.874;10.186;2023-02-15T14:33:00;13.60;;;10.73;;
44438;SDS011;30145;48.874;10.186;2023-02-15T14:35:32;13.00;;;10.70;;
44438;SDS011;30145;48.874;10.186;2023-02-15T14:41:02;12.03;;;9.50;;
44438;SDS011;30145;48.874;10.186;2023-02-15T14:46:35;12.13;;;9.57;;
44438;SDS011;30145;48.874;10.186;2023-02-15T14:56:44;12.13;;;9.90;;
44438;SDS011;30145;48.874;10.186;2023-02-15T14:59:18;10.47;;;8.77;;
44438;SDS011;30145;48.874;10.186;2023-02-15T15:01:55;12.23;;;9.23;;
44438;SDS011;30145;48.874;10.186;2023-02-15T15:09:29;11.53;;;9.13;;
44438;SDS011;30145;48.874;10.186;2023-02-15T15:14:59;12.27;;;9.47;;
44438;SDS011;30145;48.874;10.186;2023-02-15T15:22:41;13.63;;;9.47;;
44438;SDS011;30145;48.874;10.186;2023-02-15T15:28:05;16.00;;;10.60;;
44438;SDS011;30145;48.874;10.186;2023-02-15T15:33:17;12.77;;;10.03;;
44438;SDS011;30145;48.874;10.186;2023-02-15T15:41:47;26.07;;;17.97;;
44438;SDS011;30145;48.874;10.186;2023-02-15T15:50:11;31.37;;;24.40;;
44438;SDS011;30145;48.874;10.186;2023-02-15T15:52:42;19.70;;;16.70;;
44438;SDS011;30145;48.874;10.186;2023-02-15T15:55:14;16.40;;;13.17;;
44438;SDS011;30145;48.874;10.186;2023-02-15T15:57:44;15.40;;;11.40;;
44438;SDS011;30145;48.874;10.186;2023-02-15T16:02:54;25.50;;;19.00;;
44438;SDS011;30145;48.874;10.186;2023-02-15T16:05:24;18.83;;;14.63;;
44438;SDS011;30145;48.874;10.186;2023-02-15T16:07:51;16.60;;;12.57;;
44438;SDS011;30145;48.874;10.186;2023-02-15T16:10:23;17.37;;;13.00;;
44438;SDS011;30145;48.874;10.186;2023-02-15T16:12:52;16.07;;;12.33;;
44438;SDS011;30145;48.874;10.186;2023-02-15T16:17:48;15.27;;;12.97;;
44438;SDS011;30145;48.874;10.186;2023-02-15T16:29:12;14.10;;;11.07;;
44438;SDS011;30145;48.874;10.186;2023-02-15T16:31:40;14.00;;;10.77;;
44438;SDS011;30145;48.874;10.186;2023-02-15T16:34:09;14.70;;;10.27;;
44438;SDS011;30145;48.874;10.186;2023-02-15T16:36:43;11.10;;;8.90;;
44438;SDS011;30145;48.874;10.186;2023-02-15T16:39:16;13.47;;;10.00;;
44438;SDS011;30145;48.874;10.186;2023-02-15T16:41:45;12.70;;;10.63;;
44438;SDS011;30145;48.874;10.186;2023-02-15T16:44:18;13.40;;;10.23;;
44438;SDS011;30145;48.874;10.186;2023-02-15T16:46:47;14.17;;;11.00;;
44438;SDS011;30145;48.874;10.186;2023-02-15T16:49:18;28.90;;;18.80;;
44438;SDS011;30145;48.874;10.186;2023-02-15T16:51:53;19.63;;;14.17;;
44438;SDS011;30145;48.874;10.186;2023-02-15T16:54:28;20.27;;;12.73;;
44438;SDS011;30145;48.874;10.186;2023-02-15T16:56:57;20.57;;;12.93;;
44438;SDS011;30145;48.874;10.186;2023-02-15T17:01:58;18.10;;;13.33;;
44438;SDS011;30145;48.874;10.186;2023-02-15T17:04:29;24.17;;;15.23;;
44438;SDS011;30145;48.874;10.186;2023-02-15T17:09:55;27.00;;;16.63;;
44438;SDS011;30145;48.874;10.186;2023-02-15T17:18:03;20.77;;;14.70;;
44438;SDS011;30145;48.874;10.186;2023-02-15T17:20:32;18.07;;;13.63;;
44438;SDS011;30145;48.874;10.186;2023-02-15T17:23:02;15.50;;;12.40;;
44438;SDS011;30145;48.874;10.186;2023-02-15T17:25:33;16.23;;;12.90;;
44438;SDS011;30145;48.874;10.186;2023-02-15T17:28:03;16.17;;;12.30;;
44438;SDS011;30145;48.874;10.186;2023-02-15T17:30:32;15.60;;;11.97;;
44438;SDS011;30145;48.874;10.186;2023-02-15T17:33:01;15.93;;;11.73;;
44438;SDS011;30145;48.874;10.186;2023-02-15T17:35:31;17.47;;;12.30;;
44438;SDS011;30145;48.874;10.186;2023-02-15T17:38:06;17.33;;;12.43;;
44438;SDS011;30145;48.874;10.186;2023-02-15T17:40:45;16.20;;;13.70;;
44438;SDS011;30145;48.874;10.186;2023-02-15T17:43:13;19.33;;;14.37;;
44438;SDS011;30145;48.874;10.186;2023-02-15T17:45:47;20.17;;;14.93;;
44438;SDS011;30145;48.874;10.186;2023-02-15T17:48:35;29.20;;;18.53;;
44438;SDS011;30145;48.874;10.186;2023-02-15T17:51:03;31.83;;;21.47;;
44438;SDS011;30145;48.874;10.186;2023-02-15T17:53:32;31.10;;;20.83;;
44438;SDS011;30145;48.874;10.186;2023-02-15T17:55:59;33.70;;;21.00;;
44438;SDS011;30145;48.874;10.186;2023-02-15T17:58:36;27.30;;;19.87;;
44438;SDS011;30145;48.874;10.186;2023-02-15T18:01:11;29.33;;;19.07;;
44438;SDS011;30145;48.874;10.186;2023-02-15T18:04:00;26.90;;;17.27;;
44438;SDS011;30145;48.874;10.186;2023-02-15T18:06:46;24.53;;;17.90;;
44438;SDS011;30145;48.874;10.186;2023-02-15T18:09:31;20.07;;;15.60;;
44438;SDS011;30145;48.874;10.186;2023-02-15T18:12:21;27.03;;;17.07;;
44438;SDS011;30145;48.874;10.186;2023-02-15T18:14:50;24.83;;;18.07;;
44438;SDS011;30145;48.874;10.186;2023-02-15T18:17:18;24.97;;;17.30;;
44438;SDS011;30145;48.874;10.186;2023-02-15T18:19:49;25.77;;;17.50;;
44438;SDS011;30145;48.874;10.186;2023-02-15T18:22:17;27.80;;;17.90;;
44438;SDS011;30145;48.874;10.186;2023-02-15T18:24:45;29.00;;;20.37;;